sensor_id;sensor_type;location;lat;lon;timestamp;pressure;altitude;pressure_sealevel;temperature;humidity
70976;BME280;58635;51.198;6.010;2023-09-19T00:01:33;100695.75;;;21.03;52.26
70976;BME280;58635;51.198;6.010;2023-09-19T00:04:01;100699.19;;;20.98;52.67
70976;BME280;58635;51.198;6.010;2023-09-19T00:06:30;100699.97;;;20.94;52.62
70976;BME280;58635;51.198;6.010;2023-09-19T00:08:58;100710.50;;;20.89;52.58
70976;BME280;58635;51.198;6.010;2023-09-19T00:11:28;100701.28;;;20.81;52.79
70976;BME280;58635;51.198;6.010;2023-09-19T00:13:55;100712.06;;;20.80;52.78
70976;BME280;58635;51.198;6.010;2023-09-19T00:16:23;100712.59;;;20.77;52.93
70976;BME280;58635;51.198;6.010;2023-09-19T00:18:49;100711.78;;;20.71;52.99
70976;BME280;58635;51.198;6.010;2023-09-19T00:21:15;100713.09;;;20.68;53.05
70976;BME280;58635;51.198;6.010;2023-09-19T00:23:42;100714.16;;;20.67;53.41
70976;BME280;58635;51.198;6.010;2023-09-19T00:26:08;100718.38;;;20.68;53.03
70976;BME280;58635;51.198;6.010;2023-09-19T00:28:34;100728.88;;;20.68;53.03
70976;BME280;58635;51.198;6.010;2023-09-19T00:31:01;100724.66;;;20.67;53.02
70976;BME280;58635;51.198;6.010;2023-09-19T00:33:28;100728.63;;;20.70;53.02
70976;BME280;58635;51.198;6.010;2023-09-19T00:35:56;100737.06;;;20.72;52.91
70976;BME280;58635;51.198;6.010;2023-09-19T00:38:24;100726.78;;;20.65;52.71
70976;BME280;58635;51.198;6.010;2023-09-19T00:40:54;100733.63;;;20.61;52.82
70976;BME280;58635;51.198;6.010;2023-09-19T00:43:20;100726.75;;;20.55;53.11
70976;BME280;58635;51.198;6.010;2023-09-19T00:45:49;100730.97;;;20.56;52.98
70976;BME280;58635;51.198;6.010;2023-09-19T00:48:18;100735.16;;;20.52;53.16
70976;BME280;58635;51.198;6.010;2023-09-19T00:50:46;100738.06;;;20.51;53.08
70976;BME280;58635;51.198;6.010;2023-09-19T00:53:15;100737.28;;;20.50;53.21
70976;BME280;58635;51.198;6.010;2023-09-19T00:55:45;100740.94;;;20.44;53.35
70976;BME280;58635;51.198;6.010;2023-09-19T00:58:12;100744.59;;;20.43;53.15
70976;BME280;58635;51.198;6.010;2023-09-19T01:00:40;100752.75;;;20.47;53.33
70976;BME280;58635;51.198;6.010;2023-09-19T01:03:07;100758.28;;;20.50;53.33
70976;BME280;58635;51.198;6.010;2023-09-19T01:05:33;100748.84;;;20.49;53.05
70976;BME280;58635;51.198;6.010;2023-09-19T01:08:00;100755.38;;;20.47;53.27
70976;BME280;58635;51.198;6.010;2023-09-19T01:10:26;100754.06;;;20.44;53.00
70976;BME280;58635;51.198;6.010;2023-09-19T01:13:17;100761.16;;;20.43;53.29
70976;BME280;58635;51.198;6.010;2023-09-19T01:21:08;100779.78;;;20.37;53.58
70976;BME280;58635;51.198;6.010;2023-09-19T01:32:03;100786.31;;;20.34;53.49
70976;BME280;58635;51.198;6.010;2023-09-19T01:34:47;100787.34;;;20.33;53.13
70976;BME280;58635;51.198;6.010;2023-09-19T01:37:16;100794.97;;;20.30;53.10
70976;BME280;58635;51.198;6.010;2023-09-19T01:39:54;100792.34;;;20.30;53.00
70976;BME280;58635;51.198;6.010;2023-09-19T01:42:34;100790.50;;;20.35;52.79
70976;BME280;58635;51.198;6.010;2023-09-19T01:51:14;100796.56;;;20.36;51.92
70976;BME280;58635;51.198;6.010;2023-09-19T01:56:21;100796.53;;;20.26;51.60
70976;BME280;58635;51.198;6.010;2023-09-19T01:58:53;100791.28;;;20.26;51.34
70976;BME280;58635;51.198;6.010;2023-09-19T02:01:24;100794.66;;;20.21;51.14
70976;BME280;58635;51.198;6.010;2023-09-19T02:03:51;100791.00;;;20.22;51.03
70976;BME280;58635;51.198;6.010;2023-09-19T02:06:18;100793.88;;;20.21;50.97
70976;BME280;58635;51.198;6.010;2023-09-19T02:08:45;100800.19;;;20.20;51.00
70976;BME280;58635;51.198;6.010;2023-09-19T02:11:12;100805.16;;;20.16;51.08
70976;BME280;58635;51.198;6.010;2023-09-19T02:13:39;100799.09;;;20.10;51.50
70976;BME280;58635;51.198;6.010;2023-09-19T02:16:07;100807.75;;;20.11;51.59
70976;BME280;58635;51.198;6.010;2023-09-19T02:18:35;100808.06;;;20.14;51.45
70976;BME280;58635;51.198;6.010;2023-09-19T02:21:02;100806.47;;;20.13;51.39
70976;BME280;58635;51.198;6.010;2023-09-19T02:23:30;100806.19;;;20.10;51.12
70976;BME280;58635;51.198;6.010;2023-09-19T02:25:57;100809.06;;;20.03;51.35
70976;BME280;58635;51.198;6.010;2023-09-19T02:28:32;100808.50;;;20.01;51.21
70976;BME280;58635;51.198;6.010;2023-09-19T02:30:59;100806.91;;;19.95;51.40
70976;BME280;58635;51.198;6.010;2023-09-19T02:33:25;100812.66;;;19.92;51.53
70976;BME280;58635;51.198;6.010;2023-09-19T02:35:55;100810.03;;;19.92;51.46
70976;BME280;58635;51.198;6.010;2023-09-19T02:38:27;100808.72;;;19.90;51.71
70976;BME280;58635;51.198;6.010;2023-09-19T02:40:53;100809.50;;;19.90;51.63
70976;BME280;58635;51.198;6.010;2023-09-19T02:43:21;100803.22;;;19.91;51.58
70976;BME280;58635;51.198;6.010;2023-09-19T02:45:48;100813.72;;;19.91;51.70
70976;BME280;58635;51.198;6.010;2023-09-19T02:48:21;100813.91;;;19.79;51.94
70976;BME280;58635;51.198;6.010;2023-09-19T02:50:51;100815.25;;;19.87;51.98
70976;BME280;58635;51.198;6.010;2023-09-19T02:53:17;100810.28;;;19.91;51.94
70976;BME280;58635;51.198;6.010;2023-09-19T02:55:46;100811.09;;;19.91;52.09
70976;BME280;58635;51.198;6.010;2023-09-19T02:58:12;100820.25;;;19.89;52.16
70976;BME280;58635;51.198;6.010;2023-09-19T03:00:41;100818.63;;;19.82;52.46
70976;BME280;58635;51.198;6.010;2023-09-19T03:03:08;100818.84;;;19.76;52.76
70976;BME280;58635;51.198;6.010;2023-09-19T03:05:35;100821.44;;;19.71;52.81
70976;BME280;58635;51.198;6.010;2023-09-19T03:08:01;100821.72;;;19.74;53.02
70976;BME280;58635;51.198;6.010;2023-09-19T03:10:28;100821.25;;;19.77;53.14
70976;BME280;58635;51.198;6.010;2023-09-19T03:12:55;100832.28;;;19.84;53.46
70976;BME280;58635;51.198;6.010;2023-09-19T03:15:21;100826.78;;;19.86;53.16
70976;BME280;58635;51.198;6.010;2023-09-19T03:17:48;100824.94;;;19.86;53.35
70976;BME280;58635;51.198;6.010;2023-09-19T03:20:15;100829.16;;;19.88;53.69
70976;BME280;58635;51.198;6.010;2023-09-19T03:22:45;100834.19;;;19.89;53.88
70976;BME280;58635;51.198;6.010;2023-09-19T03:25:12;100833.09;;;19.85;54.09
70976;BME280;58635;51.198;6.010;2023-09-19T03:27:39;100833.06;;;19.80;54.21
70976;BME280;58635;51.198;6.010;2023-09-19T03:30:06;100837.78;;;19.78;54.23
70976;BME280;58635;51.198;6.010;2023-09-19T03:32:46;100839.38;;;19.79;54.45
70976;BME280;58635;51.198;6.010;2023-09-19T03:35:13;100840.41;;;19.78;54.21
70976;BME280;58635;51.198;6.010;2023-09-19T03:37:40;100844.59;;;19.79;54.06
70976;BME280;58635;51.198;6.010;2023-09-19T03:40:08;100846.19;;;19.80;54.34
70976;BME280;58635;51.198;6.010;2023-09-19T03:42:42;100836.44;;;19.75;54.21
70976;BME280;58635;51.198;6.010;2023-09-19T03:45:09;100835.91;;;19.73;54.34
70976;BME280;58635;51.198;6.010;2023-09-19T03:47:39;100832.22;;;19.74;53.96
70976;BME280;58635;51.198;6.010;2023-09-19T03:50:06;100835.63;;;19.75;54.23
70976;BME280;58635;51.198;6.010;2023-09-19T03:52:41;100833.53;;;19.72;54.46
70976;BME280;58635;51.198;6.010;2023-09-19T03:55:08;100831.16;;;19.70;54.39
70976;BME280;58635;51.198;6.010;2023-09-19T03:57:36;100831.94;;;19.71;54.43
70976;BME280;58635;51.198;6.010;2023-09-19T04:00:03;100827.50;;;19.71;54.33
70976;BME280;58635;51.198;6.010;2023-09-19T04:02:31;100826.44;;;19.67;54.39
70976;BME280;58635;51.198;6.010;2023-09-19T04:04:59;100825.06;;;19.65;54.47
70976;BME280;58635;51.198;6.010;2023-09-19T04:07:25;100826.13;;;19.64;54.36
70976;BME280;58635;51.198;6.010;2023-09-19T04:09:55;100821.88;;;19.58;54.44
70976;BME280;58635;51.198;6.010;2023-09-19T04:12:21;100814.28;;;19.56;54.69
70976;BME280;58635;51.198;6.010;2023-09-19T04:14:48;100821.88;;;19.58;54.72
70976;BME280;58635;51.198;6.010;2023-09-19T04:17:16;100830.56;;;19.58;54.53
70976;BME280;58635;51.198;6.010;2023-09-19T04:19:42;100830.03;;;19.61;54.27
70976;BME280;58635;51.198;6.010;2023-09-19T04:22:09;100824.78;;;19.61;54.50
70976;BME280;58635;51.198;6.010;2023-09-19T04:24:35;100829.25;;;19.61;54.45
70976;BME280;58635;51.198;6.010;2023-09-19T04:27:01;100829.22;;;19.55;54.54
70976;BME280;58635;51.198;6.010;2023-09-19T04:29:28;100826.03;;;19.53;54.50
70976;BME280;58635;51.198;6.010;2023-09-19T04:31:56;100834.38;;;19.50;54.25
70976;BME280;58635;51.198;6.010;2023-09-19T04:34:25;100839.09;;;19.48;54.27
70976;BME280;58635;51.198;6.010;2023-09-19T04:36:51;100829.13;;;19.50;54.31
70976;BME280;58635;51.198;6.010;2023-09-19T04:39:18;100840.50;;;19.56;54.10
70976;BME280;58635;51.198;6.010;2023-09-19T04:41:45;100843.94;;;19.56;53.56
70976;BME280;58635;51.198;6.010;2023-09-19T04:44:12;100847.03;;;19.53;54.41
70976;BME280;58635;51.198;6.010;2023-09-19T04:46:39;100842.25;;;19.50;54.45
70976;BME280;58635;51.198;6.010;2023-09-19T04:49:06;100842.78;;;19.47;54.02
70976;BME280;58635;51.198;6.010;2023-09-19T04:51:32;100841.94;;;19.42;54.45
70976;BME280;58635;51.198;6.010;2023-09-19T04:54:01;100849.06;;;19.46;54.12
70976;BME280;58635;51.198;6.010;2023-09-19T04:56:27;100862.47;;;19.50;54.06
70976;BME280;58635;51.198;6.010;2023-09-19T04:58:54;100860.09;;;19.48;53.94
70976;BME280;58635;51.198;6.010;2023-09-19T05:01:21;100863.00;;;19.52;53.52
70976;BME280;58635;51.198;6.010;2023-09-19T05:03:49;100874.25;;;19.47;53.58
70976;BME280;58635;51.198;6.010;2023-09-19T05:06:22;100878.44;;;19.48;53.46
70976;BME280;58635;51.198;6.010;2023-09-19T05:08:49;100879.75;;;19.46;53.61
70976;BME280;58635;51.198;6.010;2023-09-19T05:11:20;100885.28;;;19.49;53.70
70976;BME280;58635;51.198;6.010;2023-09-19T05:13:49;100894.72;;;19.50;53.36
70976;BME280;58635;51.198;6.010;2023-09-19T05:16:19;100899.19;;;19.50;53.11
70976;BME280;58635;51.198;6.010;2023-09-19T05:18:45;100903.63;;;19.49;53.55
70976;BME280;58635;51.198;6.010;2023-09-19T05:21:11;100901.81;;;19.50;53.16
70976;BME280;58635;51.198;6.010;2023-09-19T05:23:38;100910.47;;;19.50;53.41
70976;BME280;58635;51.198;6.010;2023-09-19T05:26:04;100903.59;;;19.44;53.32
70976;BME280;58635;51.198;6.010;2023-09-19T05:28:31;100913.84;;;19.46;53.25
70976;BME280;58635;51.198;6.010;2023-09-19T05:31:01;100914.09;;;19.44;53.59
70976;BME280;58635;51.198;6.010;2023-09-19T05:33:31;100915.94;;;19.44;53.40
70976;BME280;58635;51.198;6.010;2023-09-19T05:35:57;100909.09;;;19.43;53.68
70976;BME280;58635;51.198;6.010;2023-09-19T05:38:24;100929.59;;;19.46;53.74
70976;BME280;58635;51.198;6.010;2023-09-19T05:40:52;100932.75;;;19.48;53.46
70976;BME280;58635;51.198;6.010;2023-09-19T05:43:19;100929.34;;;19.47;53.94
70976;BME280;58635;51.198;6.010;2023-09-19T05:45:45;100934.84;;;19.46;53.84
70976;BME280;58635;51.198;6.010;2023-09-19T05:48:12;100931.97;;;19.47;53.95
70976;BME280;58635;51.198;6.010;2023-09-19T05:50:41;100928.28;;;19.48;53.90
70976;BME280;58635;51.198;6.010;2023-09-19T05:53:08;100930.66;;;19.50;54.15
70976;BME280;58635;51.198;6.010;2023-09-19T05:55:38;100933.81;;;19.52;54.06
70976;BME280;58635;51.198;6.010;2023-09-19T05:58:05;100925.25;;;19.56;54.04
70976;BME280;58635;51.198;6.010;2023-09-19T06:00:31;100935.25;;;19.60;54.22
70976;BME280;58635;51.198;6.010;2023-09-19T06:02:58;100928.66;;;19.57;54.15
70976;BME280;58635;51.198;6.010;2023-09-19T06:05:26;100918.66;;;19.54;54.35
70976;BME280;58635;51.198;6.010;2023-09-19T06:07:53;100917.38;;;19.56;54.34
70976;BME280;58635;51.198;6.010;2023-09-19T06:10:20;100927.38;;;19.60;54.09
70976;BME280;58635;51.198;6.010;2023-09-19T06:12:49;100930.53;;;19.62;54.17
70976;BME280;58635;51.198;6.010;2023-09-19T06:15:16;100925.78;;;19.59;54.33
70976;BME280;58635;51.198;6.010;2023-09-19T06:17:53;100923.41;;;19.57;54.54
70976;BME280;58635;51.198;6.010;2023-09-19T06:20:23;100918.66;;;19.54;54.34
70976;BME280;58635;51.198;6.010;2023-09-19T06:22:50;100922.63;;;19.56;54.49
70976;BME280;58635;51.198;6.010;2023-09-19T06:25:17;100926.59;;;19.59;54.63
70976;BME280;58635;51.198;6.010;2023-09-19T06:27:49;100922.13;;;19.60;54.31
70976;BME280;58635;51.198;6.010;2023-09-19T06:30:18;100919.84;;;19.68;53.95
70976;BME280;58635;51.198;6.010;2023-09-19T06:32:44;100927.75;;;19.73;54.17
70976;BME280;58635;51.198;6.010;2023-09-19T06:35:12;100921.75;;;19.78;54.02
70976;BME280;58635;51.198;6.010;2023-09-19T06:37:39;100924.94;;;19.80;53.99
70976;BME280;58635;51.198;6.010;2023-09-19T06:40:11;100921.50;;;19.79;54.14
70976;BME280;58635;51.198;6.010;2023-09-19T06:42:41;100936.72;;;19.77;54.08
70976;BME280;58635;51.198;6.010;2023-09-19T06:45:08;100934.88;;;19.78;54.22
70976;BME280;58635;51.198;6.010;2023-09-19T06:47:37;100933.63;;;19.85;54.26
70976;BME280;58635;51.198;6.010;2023-09-19T06:50:04;100947.59;;;19.91;54.03
70976;BME280;58635;51.198;6.010;2023-09-19T06:52:32;100948.38;;;19.92;53.91
70976;BME280;58635;51.198;6.010;2023-09-19T06:54:59;100947.59;;;19.91;53.85
70976;BME280;58635;51.198;6.010;2023-09-19T06:57:25;100953.91;;;19.95;53.90
70976;BME280;58635;51.198;6.010;2023-09-19T06:59:51;100949.97;;;19.93;54.02
70976;BME280;58635;51.198;6.010;2023-09-19T07:02:18;100955.22;;;19.98;53.85
70976;BME280;58635;51.198;6.010;2023-09-19T07:04:45;100957.66;;;20.04;53.57
70976;BME280;58635;51.198;6.010;2023-09-19T07:07:12;100956.91;;;20.09;53.75
70976;BME280;58635;51.198;6.010;2023-09-19T07:09:40;100962.69;;;20.11;53.39
70976;BME280;58635;51.198;6.010;2023-09-19T07:12:06;100971.16;;;20.18;53.41
70976;BME280;58635;51.198;6.010;2023-09-19T07:14:32;100958.28;;;20.22;53.30
70976;BME280;58635;51.198;6.010;2023-09-19T07:16:59;100963.09;;;20.30;53.01
70976;BME280;58635;51.198;6.010;2023-09-19T07:19:29;100974.41;;;20.35;53.27
70976;BME280;58635;51.198;6.010;2023-09-19T07:21:57;100964.19;;;20.39;52.77
70976;BME280;58635;51.198;6.010;2023-09-19T07:24:25;100966.03;;;20.38;52.86
70976;BME280;58635;51.198;6.010;2023-09-19T07:26:52;100967.91;;;20.43;52.79
70976;BME280;58635;51.198;6.010;2023-09-19T07:29:19;100973.75;;;20.50;52.83
70976;BME280;58635;51.198;6.010;2023-09-19T07:31:45;100972.19;;;20.54;52.75
70976;BME280;58635;51.198;6.010;2023-09-19T07:34:13;100974.34;;;20.62;52.74
70976;BME280;58635;51.198;6.010;2023-09-19T07:36:40;100968.31;;;20.67;52.33
70976;BME280;58635;51.198;6.010;2023-09-19T07:39:08;100959.63;;;20.66;52.16
70976;BME280;58635;51.198;6.010;2023-09-19T07:41:34;100954.38;;;20.66;52.22
70976;BME280;58635;51.198;6.010;2023-09-19T07:44:00;100962.28;;;20.71;52.28
70976;BME280;58635;51.198;6.010;2023-09-19T07:46:27;100967.56;;;20.82;52.08
70976;BME280;58635;51.198;6.010;2023-09-19T07:48:53;100967.63;;;20.92;51.85
70976;BME280;58635;51.198;6.010;2023-09-19T07:51:20;100965.81;;;20.97;51.58
70976;BME280;58635;51.198;6.010;2023-09-19T07:53:46;100967.38;;;20.93;51.48
70976;BME280;58635;51.198;6.010;2023-09-19T07:56:14;100979.22;;;21.01;51.87
70976;BME280;58635;51.198;6.010;2023-09-19T07:58:41;100973.44;;;21.04;51.34
70976;BME280;58635;51.198;6.010;2023-09-19T08:01:09;100967.44;;;21.09;51.22
70976;BME280;58635;51.198;6.010;2023-09-19T08:03:36;100965.59;;;21.09;51.27
70976;BME280;58635;51.198;6.010;2023-09-19T08:06:07;100969.28;;;21.13;51.17
70976;BME280;58635;51.198;6.010;2023-09-19T08:08:34;100976.66;;;21.16;51.08
70976;BME280;58635;51.198;6.010;2023-09-19T08:11:04;100977.75;;;21.25;50.95
70976;BME280;58635;51.198;6.010;2023-09-19T08:13:39;100981.72;;;21.33;50.95
70976;BME280;58635;51.198;6.010;2023-09-19T08:16:10;100979.66;;;21.45;50.46
70976;BME280;58635;51.198;6.010;2023-09-19T08:18:37;100982.03;;;21.47;50.34
70976;BME280;58635;51.198;6.010;2023-09-19T08:21:07;100986.75;;;21.50;50.53
70976;BME280;58635;51.198;6.010;2023-09-19T08:23:37;100987.56;;;21.55;50.27
70976;BME280;58635;51.198;6.010;2023-09-19T08:26:05;100987.56;;;21.60;50.19
70976;BME280;58635;51.198;6.010;2023-09-19T08:28:35;100985.97;;;21.65;50.14
70976;BME280;58635;51.198;6.010;2023-09-19T08:31:05;100980.19;;;21.73;49.90
70976;BME280;58635;51.198;6.010;2023-09-19T08:33:36;100984.44;;;21.79;49.40
70976;BME280;58635;51.198;6.010;2023-09-19T08:36:03;100993.09;;;21.74;49.64
70976;BME280;58635;51.198;6.010;2023-09-19T08:38:31;100988.66;;;21.80;49.44
70976;BME280;58635;51.198;6.010;2023-09-19T08:41:00;100987.59;;;21.81;49.30
70976;BME280;58635;51.198;6.010;2023-09-19T08:43:27;100996.28;;;21.81;49.20
70976;BME280;58635;51.198;6.010;2023-09-19T08:46:11;100982.56;;;21.84;49.47
70976;BME280;58635;51.198;6.010;2023-09-19T08:51:27;100995.22;;;21.93;49.06
70976;BME280;58635;51.198;6.010;2023-09-19T08:54:08;100991.78;;;21.97;48.64
70976;BME280;58635;51.198;6.010;2023-09-19T08:56:41;100981.00;;;21.94;48.80
70976;BME280;58635;51.198;6.010;2023-09-19T08:59:09;100987.56;;;22.01;48.45
70976;BME280;58635;51.198;6.010;2023-09-19T09:01:36;100984.69;;;22.03;48.29
70976;BME280;58635;51.198;6.010;2023-09-19T09:04:06;100982.59;;;22.05;48.20
70976;BME280;58635;51.198;6.010;2023-09-19T09:06:35;100986.53;;;22.02;47.71
70976;BME280;58635;51.198;6.010;2023-09-19T09:09:02;100977.84;;;21.92;47.86
70976;BME280;58635;51.198;6.010;2023-09-19T09:11:33;100983.63;;;21.94;48.06
70976;BME280;58635;51.198;6.010;2023-09-19T09:13:59;100989.69;;;21.94;47.77
70976;BME280;58635;51.198;6.010;2023-09-19T09:16:26;100965.47;;;21.92;47.83
70976;BME280;58635;51.198;6.010;2023-09-19T09:18:52;100971.25;;;21.94;47.92
70976;BME280;58635;51.198;6.010;2023-09-19T09:21:21;100964.66;;;21.97;48.06
70976;BME280;58635;51.198;6.010;2023-09-19T09:23:49;100966.25;;;21.98;48.40
70976;BME280;58635;51.198;6.010;2023-09-19T09:26:16;100966.50;;;22.01;48.43
70976;BME280;58635;51.198;6.010;2023-09-19T09:28:46;100975.22;;;22.07;48.20
70976;BME280;58635;51.198;6.010;2023-09-19T09:31:23;100969.69;;;22.18;47.66
70976;BME280;58635;51.198;6.010;2023-09-19T09:33:54;100966.25;;;22.13;47.40
70976;BME280;58635;51.198;6.010;2023-09-19T09:36:38;100978.66;;;22.17;47.56
70976;BME280;58635;51.198;6.010;2023-09-19T09:39:04;100975.72;;;22.24;47.65
70976;BME280;58635;51.198;6.010;2023-09-19T09:41:50;100969.66;;;22.29;47.38
70976;BME280;58635;51.198;6.010;2023-09-19T09:44:17;100973.06;;;22.34;47.18
70976;BME280;58635;51.198;6.010;2023-09-19T09:46:46;100974.38;;;22.37;46.61
70976;BME280;58635;51.198;6.010;2023-09-19T09:49:22;100968.59;;;22.40;46.96
70976;BME280;58635;51.198;6.010;2023-09-19T09:54:28;100960.66;;;22.50;46.67
70976;BME280;58635;51.198;6.010;2023-09-19T09:57:06;100959.06;;;22.49;46.29
70976;BME280;58635;51.198;6.010;2023-09-19T09:59:57;100953.00;;;22.48;46.65
70976;BME280;58635;51.198;6.010;2023-09-19T10:02:29;100952.50;;;22.46;46.48
70976;BME280;58635;51.198;6.010;2023-09-19T10:04:56;100958.28;;;22.48;46.21
70976;BME280;58635;51.198;6.010;2023-09-19T10:07:33;100961.97;;;22.47;46.48
70976;BME280;58635;51.198;6.010;2023-09-19T10:10:05;100967.25;;;22.53;46.29
70976;BME280;58635;51.198;6.010;2023-09-19T10:12:49;100957.25;;;22.50;46.16
70976;BME280;58635;51.198;6.010;2023-09-19T10:15:19;100955.09;;;22.57;45.81
70976;BME280;58635;51.198;6.010;2023-09-19T10:17:51;100951.66;;;22.56;45.50
70976;BME280;58635;51.198;6.010;2023-09-19T10:20:24;100957.47;;;22.53;45.16
70976;BME280;58635;51.198;6.010;2023-09-19T10:23:10;100954.06;;;22.53;45.61
70976;BME280;58635;51.198;6.010;2023-09-19T10:25:42;100944.59;;;22.52;45.49
70976;BME280;58635;51.198;6.010;2023-09-19T10:28:11;100938.25;;;22.53;45.65
70976;BME280;58635;51.198;6.010;2023-09-19T10:30:44;100954.56;;;22.60;45.40
70976;BME280;58635;51.198;6.010;2023-09-19T10:33:12;100936.59;;;22.67;45.57
70976;BME280;58635;51.198;6.010;2023-09-19T10:35:41;100942.13;;;22.75;45.31
70976;BME280;58635;51.198;6.010;2023-09-19T10:38:13;100946.59;;;22.75;44.84
70976;BME280;58635;51.198;6.010;2023-09-19T10:40:40;100944.75;;;22.75;44.72
70976;BME280;58635;51.198;6.010;2023-09-19T10:43:16;100949.75;;;22.77;45.08
70976;BME280;58635;51.198;6.010;2023-09-19T10:45:46;100950.78;;;22.81;44.74
70976;BME280;58635;51.198;6.010;2023-09-19T10:48:16;100944.19;;;22.84;44.71
70976;BME280;58635;51.198;6.010;2023-09-19T10:50:50;100956.00;;;22.96;44.79
70976;BME280;58635;51.198;6.010;2023-09-19T10:53:22;100948.03;;;23.07;44.71
70976;BME280;58635;51.198;6.010;2023-09-19T10:55:59;100952.47;;;23.16;43.99
70976;BME280;58635;51.198;6.010;2023-09-19T10:58:31;100943.22;;;23.24;44.41
70976;BME280;58635;51.198;6.010;2023-09-19T11:01:00;100955.56;;;23.28;43.62
70976;BME280;58635;51.198;6.010;2023-09-19T11:03:31;100947.94;;;23.27;43.62
70976;BME280;58635;51.198;6.010;2023-09-19T11:09:02;100961.63;;;23.29;43.05
70976;BME280;58635;51.198;6.010;2023-09-19T11:11:43;100951.34;;;23.27;43.34
70976;BME280;58635;51.198;6.010;2023-09-19T11:30:37;100933.22;;;23.55;42.31
70976;BME280;58635;51.198;6.010;2023-09-19T11:36:13;100931.81;;;23.68;42.42
70976;BME280;58635;51.198;6.010;2023-09-19T11:46:34;100913.13;;;23.93;40.68
70976;BME280;58635;51.198;6.010;2023-09-19T11:49:07;100913.81;;;24.04;41.48
70976;BME280;58635;51.198;6.010;2023-09-19T11:51:42;100915.50;;;24.18;40.80
70976;BME280;58635;51.198;6.010;2023-09-19T11:54:16;100920.69;;;24.29;40.70
70976;BME280;58635;51.198;6.010;2023-09-19T11:56:45;100913.72;;;24.38;40.35
70976;BME280;58635;51.198;6.010;2023-09-19T11:59:20;100914.16;;;24.45;39.63
70976;BME280;58635;51.198;6.010;2023-09-19T12:01:51;100900.94;;;24.45;40.24
70976;BME280;58635;51.198;6.010;2023-09-19T12:04:40;100897.56;;;24.63;40.03
70976;BME280;58635;51.198;6.010;2023-09-19T12:07:16;100900.22;;;24.82;40.09
70976;BME280;58635;51.198;6.010;2023-09-19T12:09:44;100896.06;;;24.95;39.72
70976;BME280;58635;51.198;6.010;2023-09-19T12:12:48;100902.59;;;25.02;39.43
70976;BME280;58635;51.198;6.010;2023-09-19T12:15:22;100894.09;;;25.05;39.20
70976;BME280;58635;51.198;6.010;2023-09-19T12:17:54;100898.38;;;25.01;39.02
70976;BME280;58635;51.198;6.010;2023-09-19T12:20:20;100891.56;;;24.95;39.23
70976;BME280;58635;51.198;6.010;2023-09-19T12:22:47;100894.69;;;24.97;39.31
70976;BME280;58635;51.198;6.010;2023-09-19T12:25:15;100885.84;;;25.07;39.35
70976;BME280;58635;51.198;6.010;2023-09-19T12:27:48;100883.16;;;25.12;39.06
70976;BME280;58635;51.198;6.010;2023-09-19T12:30:19;100886.00;;;25.16;39.19
70976;BME280;58635;51.198;6.010;2023-09-19T12:32:47;100887.28;;;25.18;39.03
70976;BME280;58635;51.198;6.010;2023-09-19T12:35:31;100879.97;;;25.29;38.76
70976;BME280;58635;51.198;6.010;2023-09-19T12:38:01;100877.84;;;25.45;38.61
70976;BME280;58635;51.198;6.010;2023-09-19T12:40:29;100874.75;;;25.56;38.38
70976;BME280;58635;51.198;6.010;2023-09-19T12:43:00;100872.81;;;25.62;38.60
70976;BME280;58635;51.198;6.010;2023-09-19T12:45:30;100882.13;;;25.59;38.02
70976;BME280;58635;51.198;6.010;2023-09-19T12:48:19;100867.19;;;25.50;38.27
70976;BME280;58635;51.198;6.010;2023-09-19T12:51:02;100870.19;;;25.43;38.26
70976;BME280;58635;51.198;6.010;2023-09-19T12:53:35;100877.34;;;25.43;38.56
70976;BME280;58635;51.198;6.010;2023-09-19T12:56:06;100868.72;;;25.37;38.65
70976;BME280;58635;51.198;6.010;2023-09-19T12:58:48;100879.69;;;25.30;38.84
70976;BME280;58635;51.198;6.010;2023-09-19T13:01:15;100872.03;;;25.29;39.50
70976;BME280;58635;51.198;6.010;2023-09-19T13:03:42;100880.41;;;25.36;39.38
70976;BME280;58635;51.198;6.010;2023-09-19T13:06:08;100895.41;;;25.41;38.97
70976;BME280;58635;51.198;6.010;2023-09-19T13:08:37;100889.97;;;25.32;39.28
70976;BME280;58635;51.198;6.010;2023-09-19T13:13:37;100902.88;;;25.20;38.70
70976;BME280;58635;51.198;6.010;2023-09-19T13:16:04;100908.84;;;25.12;39.04
70976;BME280;58635;51.198;6.010;2023-09-19T13:18:42;100899.38;;;25.05;39.46
70976;BME280;58635;51.198;6.010;2023-09-19T13:21:12;100891.25;;;24.97;39.15
70976;BME280;58635;51.198;6.010;2023-09-19T13:23:52;100892.91;;;24.93;39.53
70976;BME280;58635;51.198;6.010;2023-09-19T13:26:19;100889.97;;;24.94;39.42
70976;BME280;58635;51.198;6.010;2023-09-19T13:28:46;100886.56;;;24.94;39.67
70976;BME280;58635;51.198;6.010;2023-09-19T13:31:14;100888.41;;;24.93;39.79
70976;BME280;58635;51.198;6.010;2023-09-19T13:33:44;100882.34;;;24.93;39.87
70976;BME280;58635;51.198;6.010;2023-09-19T13:36:11;100890.28;;;24.93;39.41
70976;BME280;58635;51.198;6.010;2023-09-19T13:38:42;100887.97;;;24.86;39.11
70976;BME280;58635;51.198;6.010;2023-09-19T13:41:10;100892.56;;;24.81;39.42
70976;BME280;58635;51.198;6.010;2023-09-19T13:43:37;100891.84;;;24.75;39.98
70976;BME280;58635;51.198;6.010;2023-09-19T13:46:05;100891.56;;;24.76;39.96
70976;BME280;58635;51.198;6.010;2023-09-19T13:48:33;100897.28;;;24.84;40.39
70976;BME280;58635;51.198;6.010;2023-09-19T13:51:02;100900.38;;;24.91;40.04
70976;BME280;58635;51.198;6.010;2023-09-19T13:53:29;100903.41;;;24.98;39.92
70976;BME280;58635;51.198;6.010;2023-09-19T13:55:56;100898.94;;;24.98;40.02
70976;BME280;58635;51.198;6.010;2023-09-19T13:58:22;100900.50;;;24.99;39.80
70976;BME280;58635;51.198;6.010;2023-09-19T14:00:50;100896.53;;;25.02;39.68
70976;BME280;58635;51.198;6.010;2023-09-19T14:03:17;100892.03;;;25.02;39.73